createdAt,value
2022-09-21T00:14:35.040Z,37
2022-09-21T00:31:07.859Z,37
2022-09-21T00:47:39.681Z,36
2022-09-21T01:04:12.196Z,37
2022-09-21T01:20:43.709Z,36
2022-09-21T01:37:15.633Z,37
2022-09-21T01:53:47.173Z,36
2022-09-21T02:10:14.479Z,36
2022-09-21T02:26:46.387Z,36
2022-09-21T02:43:18.078Z,36
2022-09-21T02:59:50.903Z,36
2022-09-21T03:16:22.171Z,34
2022-09-21T03:32:54.609Z,36
2022-09-21T03:49:27.151Z,36
2022-09-21T04:06:00.064Z,35
2022-09-21T04:22:32.849Z,35
2022-09-21T04:39:05.032Z,35
2022-09-21T04:55:37.228Z,36
2022-09-21T05:12:09.512Z,34
2022-09-21T05:28:41.002Z,35
2022-09-21T05:45:08.200Z,35
2022-09-21T06:01:40.022Z,35
2022-09-21T06:18:16.968Z,35
2022-09-21T06:34:43.895Z,34
2022-09-21T06:51:15.846Z,34
2022-09-21T07:07:53.268Z,34
2022-09-21T07:24:20.482Z,34
2022-09-21T07:40:52.910Z,34
2022-09-21T07:57:25.847Z,35
2022-09-21T08:13:58.132Z,35
2022-09-21T08:30:31.644Z,35
2022-09-21T08:47:05.468Z,36
2022-09-21T09:03:41.693Z,36
2022-09-21T09:20:10.552Z,35
2022-09-21T09:36:58.326Z,37
2022-09-21T09:53:22.571Z,37
2022-09-21T10:09:58.412Z,36
2022-09-21T10:26:34.705Z,35
2022-09-21T10:43:12.413Z,34
2022-09-21T10:59:50.424Z,36
2022-09-21T11:16:26.717Z,33
2022-09-21T11:33:03.235Z,36
2022-09-21T11:49:39.861Z,35
2022-09-21T12:06:16.875Z,37
2022-09-21T12:22:53.353Z,37
2022-09-21T12:39:30.036Z,36
2022-09-21T12:56:01.250Z,36
2022-09-21T13:12:36.884Z,37
2022-09-21T13:29:13.099Z,36
2022-09-21T13:45:49.413Z,37
2022-09-21T14:02:24.600Z,38
2022-09-21T14:19:00.508Z,38
2022-09-21T14:35:35.148Z,37
2022-09-21T14:52:18.079Z,37
2022-09-21T15:08:47.321Z,37
2022-09-21T15:25:18.629Z,37
2022-09-21T15:58:30.856Z,37
2022-09-21T16:15:06.223Z,36
2022-09-21T16:31:46.236Z,36
2022-09-21T16:48:16.704Z,37
2022-09-21T17:04:52.293Z,37
2022-09-21T17:21:28.167Z,36
2022-09-21T17:38:02.163Z,36
2022-09-21T17:54:36.339Z,33
2022-09-21T18:11:10.282Z,31
2022-09-21T18:27:43.638Z,32
2022-09-21T18:44:18.034Z,31
2022-09-21T19:00:51.542Z,32
2022-09-21T19:17:19.957Z,32
2022-09-21T19:33:53.522Z,32
2022-09-21T19:50:26.165Z,32
2022-09-21T20:07:00.169Z,32
2022-09-21T20:23:34.085Z,32
2022-09-21T20:40:07.456Z,31
2022-09-21T20:56:41.153Z,32
2022-09-21T21:13:13.681Z,31
2022-09-21T21:29:46.507Z,30
2022-09-21T21:46:18.608Z,30
2022-09-21T22:02:50.127Z,31
2022-09-21T22:19:23.584Z,31
2022-09-21T22:35:55.444Z,29
2022-09-21T22:52:23.101Z,31
2022-09-21T23:08:55.210Z,30
2022-09-21T23:41:58.877Z,29
2022-09-21T23:58:31.185Z,29
